createdAt,value
2018-08-17T00:00:26.180Z,66.49
2018-08-17T00:02:54.683Z,66.41
2018-08-17T00:05:23.278Z,66.59
2018-08-17T00:07:51.797Z,66.43
2018-08-17T00:10:20.298Z,66.29
2018-08-17T00:12:48.767Z,66.51
2018-08-17T00:15:17.302Z,66.62
2018-08-17T00:17:46.172Z,66.99
2018-08-17T00:20:14.762Z,66.93
2018-08-17T00:22:43.274Z,67.49
2018-08-17T00:25:11.810Z,67.95
2018-08-17T00:27:40.305Z,68.58
2018-08-17T00:30:09.442Z,68.39
2018-08-17T00:32:37.928Z,68.46
2018-08-17T00:35:06.516Z,68.15
2018-08-17T00:37:35.053Z,68.19
2018-08-17T00:40:03.622Z,68.02
2018-08-17T00:42:32.125Z,67.79
2018-08-17T00:45:00.713Z,67.57
2018-08-17T00:47:29.227Z,67.39
2018-08-17T00:49:57.694Z,67.39
2018-08-17T00:52:26.213Z,67.02
2018-08-17T00:54:54.713Z,67.03
2018-08-17T00:57:23.265Z,67.98
2018-08-17T00:59:51.754Z,68.06
2018-08-17T01:02:20.293Z,67.83
2018-08-17T01:04:48.777Z,67.24
2018-08-17T01:07:17.302Z,67.68
2018-08-17T01:09:45.753Z,68.61
2018-08-17T01:12:14.281Z,68.59
2018-08-17T01:14:42.774Z,68.81
2018-08-17T01:17:11.296Z,68.61
2018-08-17T01:19:39.758Z,68.49
2018-08-17T01:22:08.261Z,67.86
2018-08-17T01:24:36.721Z,67.76
2018-08-17T01:27:05.332Z,67.64
2018-08-17T01:29:33.799Z,67.44
2018-08-17T01:32:02.342Z,67.15
2018-08-17T01:34:30.810Z,67.39
2018-08-17T01:36:59.316Z,67.80
2018-08-17T01:39:27.797Z,68.74
2018-08-17T01:41:56.302Z,69.22
2018-08-17T01:44:24.817Z,69.51
2018-08-17T01:46:53.314Z,68.70
2018-08-17T01:49:21.790Z,68.89
2018-08-17T01:51:50.279Z,68.12
2018-08-17T01:54:18.773Z,68.02
2018-08-17T01:56:47.270Z,68.84
2018-08-17T01:59:15.728Z,69.30
2018-08-17T02:01:44.261Z,70.17
2018-08-17T02:04:12.749Z,71.01
2018-08-17T02:06:41.237Z,71.71
2018-08-17T02:09:11.509Z,72.14
2018-08-17T02:11:43.262Z,72.24
2018-08-17T02:14:11.733Z,72.40
2018-08-17T02:16:40.540Z,72.27
2018-08-17T02:19:10.151Z,71.73
2018-08-17T02:21:38.682Z,71.68
2018-08-17T02:24:07.167Z,71.11
2018-08-17T02:26:35.682Z,70.39
2018-08-17T02:29:04.181Z,70.59
2018-08-17T02:31:32.685Z,70.28
2018-08-17T02:34:01.170Z,69.75
2018-08-17T02:36:29.689Z,69.19
2018-08-17T02:38:58.161Z,69.13
2018-08-17T02:41:27.037Z,68.91
2018-08-17T02:43:55.549Z,68.94
2018-08-17T02:46:24.069Z,68.69
2018-08-17T02:48:52.564Z,68.56
2018-08-17T02:51:21.071Z,68.72
2018-08-17T02:53:49.597Z,69.28
2018-08-17T02:56:18.066Z,68.79
2018-08-17T02:58:46.541Z,69.33
2018-08-17T03:01:15.034Z,69.01
2018-08-17T03:03:43.536Z,68.43
2018-08-17T03:06:11.989Z,68.82
2018-08-17T03:08:40.525Z,68.80
2018-08-17T03:11:08.996Z,68.17
2018-08-17T03:13:37.520Z,68.95
2018-08-17T03:16:06.001Z,68.84
2018-08-17T03:18:34.523Z,69.42
2018-08-17T03:21:03.013Z,69.42
2018-08-17T03:23:31.526Z,69.27
2018-08-17T03:25:59.998Z,69.47
2018-08-17T03:28:28.531Z,68.78
2018-08-17T03:30:57.056Z,69.20
2018-08-17T03:33:25.570Z,69.93
2018-08-17T03:35:54.049Z,70.68
2018-08-17T03:38:22.583Z,71.08
2018-08-17T03:40:51.084Z,72.04
2018-08-17T03:43:19.598Z,72.19
2018-08-17T03:45:48.073Z,73.47
2018-08-17T03:48:16.622Z,72.87
2018-08-17T03:50:45.102Z,73.47
2018-08-17T03:53:13.624Z,74.15
2018-08-17T03:55:42.129Z,74.23
2018-08-17T03:58:10.636Z,75.16
2018-08-17T04:00:39.106Z,75.36
2018-08-17T04:03:07.690Z,75.64
2018-08-17T04:05:36.184Z,76.46
2018-08-17T04:08:04.737Z,76.71
2018-08-17T04:10:33.202Z,76.79
2018-08-17T04:13:01.715Z,77.69
2018-08-17T04:15:30.212Z,77.45
2018-08-17T04:17:58.778Z,77.42
2018-08-17T04:20:27.265Z,78.07
2018-08-17T04:22:55.778Z,78.33
2018-08-17T04:25:24.544Z,77.57
2018-08-17T04:27:53.031Z,77.36
2018-08-17T04:30:21.558Z,78.31
2018-08-17T04:32:50.065Z,78.45
2018-08-17T04:35:18.567Z,77.82
2018-08-17T04:37:47.054Z,77.62
2018-08-17T04:40:15.518Z,78.72
2018-08-17T04:42:44.054Z,79.37
2018-08-17T04:45:12.557Z,79.89
2018-08-17T04:47:41.074Z,80.42
2018-08-17T04:50:10.290Z,79.86
2018-08-17T04:52:39.489Z,79.69
2018-08-17T04:55:08.417Z,79.01
2018-08-17T04:57:36.985Z,78.76
2018-08-17T05:00:07.293Z,78.22
2018-08-17T05:02:36.047Z,77.63
2018-08-17T05:05:04.857Z,77.57
2018-08-17T05:07:33.566Z,76.27
2018-08-17T05:10:02.622Z,76.27
2018-08-17T05:12:31.109Z,75.86
2018-08-17T05:14:59.612Z,74.91
2018-08-17T05:17:28.076Z,74.91
2018-08-17T05:19:56.584Z,74.38
2018-08-17T05:22:25.064Z,74.36
2018-08-17T05:24:53.607Z,74.70
2018-08-17T05:27:22.127Z,74.97
2018-08-17T05:29:50.628Z,74.44
2018-08-17T05:32:19.167Z,74.41
2018-08-17T05:34:47.676Z,74.05
2018-08-17T05:37:16.174Z,74.31
2018-08-17T05:39:44.682Z,73.97
2018-08-17T05:42:13.193Z,74.69
2018-08-17T05:44:41.765Z,73.48
2018-08-17T05:47:10.338Z,72.37
2018-08-17T05:49:39.057Z,72.55
2018-08-17T05:52:08.100Z,72.30
2018-08-17T05:54:36.598Z,72.00
2018-08-17T05:57:05.260Z,70.98
2018-08-17T05:59:34.385Z,70.84
2018-08-17T06:02:02.925Z,69.89
2018-08-17T06:04:32.038Z,69.65
2018-08-17T06:07:00.513Z,69.70
2018-08-17T06:09:29.365Z,69.93
2018-08-17T06:11:59.211Z,69.05
2018-08-17T06:14:27.794Z,68.25
2018-08-17T06:16:56.901Z,67.70
2018-08-17T06:19:25.543Z,67.70
2018-08-17T06:21:54.058Z,67.86
2018-08-17T06:24:29.786Z,67.21
2018-08-17T06:26:58.426Z,66.18
2018-08-17T06:29:26.952Z,65.12
2018-08-17T06:31:55.658Z,63.92
2018-08-17T06:34:24.414Z,63.94
2018-08-17T06:36:52.905Z,62.83
2018-08-17T06:39:21.441Z,62.20
2018-08-17T06:41:49.970Z,61.16
2018-08-17T06:44:18.510Z,60.83
2018-08-17T06:46:47.049Z,59.69
2018-08-17T06:49:15.612Z,58.40
2018-08-17T06:51:44.137Z,56.34
2018-08-17T06:54:12.727Z,54.38
2018-08-17T06:56:41.254Z,54.10
2018-08-17T06:59:09.822Z,53.06
2018-08-17T07:01:38.371Z,52.53
2018-08-17T07:04:07.379Z,51.91
2018-08-17T07:06:35.908Z,50.19
2018-08-17T07:09:06.070Z,50.01
2018-08-17T07:11:34.631Z,49.52
2018-08-17T07:14:03.146Z,48.69
2018-08-17T07:16:31.716Z,47.93
2018-08-17T07:19:00.331Z,46.65
2018-08-17T07:21:28.926Z,45.75
2018-08-17T07:23:57.776Z,44.55
2018-08-17T07:26:28.148Z,42.17
2018-08-17T07:28:56.736Z,40.33
2018-08-17T07:31:25.557Z,36.02
2018-08-17T07:33:54.210Z,30.37
2018-08-17T07:36:22.846Z,26.96
2018-08-17T07:38:51.381Z,25.13
2018-08-17T07:41:19.889Z,24.02
2018-08-17T07:43:48.341Z,22.54
2018-08-17T07:46:16.827Z,23.20
2018-08-17T07:48:45.263Z,22.76
2018-08-17T07:51:13.744Z,20.79
2018-08-17T07:53:42.189Z,20.44
2018-08-17T07:56:10.674Z,20.34
2018-08-17T07:58:39.153Z,18.96
2018-08-17T08:01:07.999Z,18.33
2018-08-17T08:03:36.474Z,17.34
2018-08-17T08:06:04.962Z,18.71
2018-08-17T08:08:33.425Z,18.05
2018-08-17T08:11:01.970Z,19.18
2018-08-17T08:13:30.387Z,18.77
2018-08-17T08:15:58.931Z,17.83
2018-08-17T08:18:27.415Z,18.04
2018-08-17T08:20:55.927Z,18.18
2018-08-17T08:23:27.277Z,19.55
2018-08-17T08:25:56.235Z,19.94
2018-08-17T08:28:24.717Z,18.62
2018-08-17T08:30:53.257Z,18.34
2018-08-17T08:33:21.894Z,16.96
2018-08-17T08:35:50.838Z,17.57
2018-08-17T08:38:19.633Z,15.41
2018-08-17T08:40:48.625Z,16.16
2018-08-17T08:43:17.121Z,16.07
2018-08-17T08:45:45.649Z,16.83
2018-08-17T08:48:14.081Z,16.39
2018-08-17T08:50:42.617Z,15.20
2018-08-17T08:53:11.129Z,15.04
2018-08-17T08:55:39.623Z,15.21
2018-08-17T08:58:09.085Z,14.56
2018-08-17T09:00:37.574Z,13.17
2018-08-17T09:03:06.951Z,13.06
2018-08-17T09:05:35.464Z,14.89
2018-08-17T09:08:04.125Z,14.97
2018-08-17T09:10:32.557Z,14.99
2018-08-17T09:14:25.425Z,14.97
2018-08-17T09:16:53.920Z,13.46
2018-08-17T09:19:22.402Z,12.62
2018-08-17T09:21:50.912Z,13.23
2018-08-17T09:24:19.391Z,13.22
2018-08-17T09:26:47.868Z,12.01
2018-08-17T09:29:38.154Z,12.11
2018-08-17T09:32:06.799Z,13.47
2018-08-17T09:34:35.848Z,13.01
2018-08-17T09:37:04.541Z,11.85
2018-08-17T09:39:33.054Z,10.92
2018-08-17T09:42:01.599Z,10.69
2018-08-17T09:44:30.030Z,10.70
2018-08-17T09:46:58.534Z,11.75
2018-08-17T09:49:27.929Z,13.32
2018-08-17T09:51:56.422Z,14.42
2018-08-17T09:54:24.883Z,14.34
2018-08-17T09:56:53.385Z,13.87
2018-08-17T09:59:21.842Z,13.66
2018-08-17T10:01:55.490Z,12.61
2018-08-17T10:04:29.333Z,11.75
2018-08-17T10:07:03.110Z,12.88
2018-08-17T10:09:36.898Z,13.01
2018-08-17T10:12:05.366Z,11.88
2018-08-17T10:17:13.079Z,12.46
2018-08-17T10:19:41.522Z,13.84
2018-08-17T10:22:10.221Z,14.28
2018-08-17T10:24:38.518Z,14.76
2018-08-17T10:27:07.073Z,14.94
2018-08-17T10:29:35.585Z,15.21
2018-08-17T10:32:04.067Z,13.92
2018-08-17T10:34:35.588Z,12.10
2018-08-17T10:37:04.077Z,12.49
2018-08-17T10:39:33.305Z,13.84
2018-08-17T10:42:01.774Z,14.16
2018-08-17T10:44:30.274Z,14.16
2018-08-17T10:46:59.300Z,13.02
2018-08-17T10:49:27.759Z,11.74
2018-08-17T10:51:57.085Z,10.87
2018-08-17T10:54:25.825Z,10.74
2018-08-17T10:56:54.379Z,10.76
2018-08-17T10:59:22.860Z,10.58
2018-08-17T11:01:52.232Z,9.68
2018-08-17T11:04:20.713Z,10.80
2018-08-17T11:06:49.215Z,11.25
2018-08-17T11:09:17.702Z,11.48
2018-08-17T11:11:46.142Z,9.85
2018-08-17T11:14:14.638Z,10.04
2018-08-17T11:16:43.101Z,11.82
2018-08-17T11:19:11.572Z,12.34
2018-08-17T11:21:40.034Z,13.17
2018-08-17T11:24:11.947Z,12.51
2018-08-17T11:26:40.389Z,12.28
2018-08-17T11:29:08.881Z,12.95
2018-08-17T11:31:37.857Z,12.97
2018-08-17T11:34:06.418Z,12.53
2018-08-17T11:36:34.945Z,13.46
2018-08-17T11:39:03.590Z,12.77
2018-08-17T11:41:32.122Z,12.18
2018-08-17T11:44:03.811Z,11.42
2018-08-17T11:46:32.586Z,12.19
2018-08-17T11:49:01.091Z,11.55
2018-08-17T11:51:29.826Z,12.62
2018-08-17T11:53:58.411Z,12.04
2018-08-17T11:56:26.853Z,12.11
2018-08-17T11:58:55.391Z,12.67
2018-08-17T12:01:26.924Z,13.83
2018-08-17T12:03:55.579Z,14.17
2018-08-17T12:06:24.352Z,12.78
2018-08-17T12:08:52.986Z,12.03
2018-08-17T12:11:21.494Z,13.04
2018-08-17T12:13:50.011Z,12.15
2018-08-17T12:16:18.483Z,14.03
2018-08-17T12:18:47.097Z,14.30
2018-08-17T12:21:15.555Z,13.74
2018-08-17T12:23:44.071Z,11.82
2018-08-17T12:26:13.247Z,11.57
2018-08-17T12:28:41.772Z,11.82
2018-08-17T12:31:10.301Z,11.29
2018-08-17T12:33:38.806Z,11.59
2018-08-17T12:36:08.937Z,12.94
2018-08-17T12:38:37.497Z,13.14
2018-08-17T12:41:08.201Z,12.44
2018-08-17T12:43:38.677Z,13.93
2018-08-17T12:46:07.482Z,15.54
2018-08-17T12:48:35.959Z,17.04
2018-08-17T12:51:05.625Z,17.71
2018-08-17T12:53:34.483Z,17.99
2018-08-17T12:56:03.065Z,18.33
2018-08-17T12:58:31.550Z,17.39
2018-08-17T13:01:00.073Z,15.34
2018-08-17T13:03:28.524Z,15.24
2018-08-17T13:05:57.052Z,15.42
2018-08-17T13:08:25.615Z,15.24
2018-08-17T13:10:55.737Z,14.65
2018-08-17T13:13:24.137Z,14.55
2018-08-17T13:15:57.824Z,14.33
2018-08-17T13:18:26.277Z,14.48
2018-08-17T13:20:55.435Z,13.51
2018-08-17T13:23:23.890Z,12.12
2018-08-17T13:25:53.414Z,11.86
2018-08-17T13:28:21.871Z,12.22
2018-08-17T13:30:50.381Z,11.33
2018-08-17T13:33:18.849Z,12.35
2018-08-17T13:35:47.373Z,12.63
2018-08-17T13:38:15.866Z,12.21
2018-08-17T13:40:44.361Z,13.50
2018-08-17T13:43:12.871Z,14.09
2018-08-17T13:45:41.390Z,13.97
2018-08-17T13:48:09.890Z,14.60
2018-08-17T13:50:38.429Z,15.83
2018-08-17T13:53:06.962Z,15.94
2018-08-17T13:55:35.461Z,15.06
2018-08-17T13:58:03.941Z,15.92
2018-08-17T14:00:32.445Z,17.47
2018-08-17T14:03:00.934Z,17.99
2018-08-17T14:05:29.420Z,16.74
2018-08-17T14:07:57.881Z,16.12
2018-08-17T14:10:27.131Z,16.48
2018-08-17T14:12:55.581Z,16.35
2018-08-17T14:15:24.117Z,16.10
2018-08-17T14:17:52.549Z,16.44
2018-08-17T14:20:21.858Z,16.32
2018-08-17T14:22:50.313Z,16.00
2018-08-17T14:25:18.961Z,14.97
2018-08-17T14:27:47.415Z,14.56
2018-08-17T14:30:18.017Z,15.16
2018-08-17T14:32:46.511Z,15.08
2018-08-17T14:35:15.408Z,15.49
2018-08-17T14:37:43.990Z,15.15
2018-08-17T14:40:13.267Z,15.31
2018-08-17T14:42:41.812Z,16.83
2018-08-17T14:45:11.035Z,17.69
2018-08-17T14:47:39.716Z,17.71
2018-08-17T14:50:10.012Z,18.51
2018-08-17T14:52:38.653Z,18.49
2018-08-17T14:55:07.570Z,18.04
2018-08-17T14:57:36.077Z,18.63
2018-08-17T15:00:05.419Z,18.61
2018-08-17T15:02:33.865Z,16.82
2018-08-17T15:05:02.322Z,17.65
2018-08-17T15:07:30.816Z,18.57
2018-08-17T15:09:59.226Z,18.87
2018-08-17T15:12:27.690Z,17.78
2018-08-17T15:14:56.133Z,18.13
2018-08-17T15:17:24.642Z,18.79
2018-08-17T15:19:53.077Z,18.97
2018-08-17T15:22:21.597Z,18.57
2018-08-17T15:24:50.105Z,19.11
2018-08-17T15:27:18.615Z,18.75
2018-08-17T15:29:47.366Z,18.65
2018-08-17T15:32:15.841Z,18.31
2018-08-17T15:34:44.313Z,17.27
2018-08-17T15:37:12.794Z,17.95
2018-08-17T15:39:41.241Z,18.80
2018-08-17T15:42:09.826Z,18.93
2018-08-17T15:44:38.277Z,18.23
2018-08-17T15:47:06.840Z,16.99
2018-08-17T15:49:36.627Z,16.90
2018-08-17T15:52:06.579Z,15.77
2018-08-17T15:54:35.006Z,15.65
2018-08-17T15:57:03.516Z,15.54
2018-08-17T15:59:32.029Z,15.69
2018-08-17T16:02:00.547Z,17.10
2018-08-17T16:04:28.996Z,17.67
2018-08-17T16:06:57.520Z,16.78
2018-08-17T16:09:25.992Z,15.87
2018-08-17T16:11:54.511Z,15.60
2018-08-17T16:14:22.989Z,14.80
2018-08-17T16:16:51.470Z,14.92
2018-08-17T16:19:19.953Z,15.66
2018-08-17T16:21:48.416Z,16.62
2018-08-17T16:24:16.894Z,17.10
2018-08-17T16:26:45.430Z,17.73
2018-08-17T16:29:13.898Z,19.40
2018-08-17T16:31:43.629Z,19.59
2018-08-17T16:34:12.091Z,20.06
2018-08-17T16:36:43.011Z,20.87
2018-08-17T16:39:14.319Z,19.60
2018-08-17T16:41:43.120Z,18.86
2018-08-17T16:44:11.950Z,18.56
2018-08-17T16:46:41.967Z,18.56
2018-08-17T16:49:10.514Z,19.60
2018-08-17T16:51:39.234Z,19.96
2018-08-17T16:54:07.770Z,20.63
2018-08-17T16:56:36.431Z,20.96
2018-08-17T16:59:05.084Z,20.89
2018-08-17T17:01:33.525Z,21.07
2018-08-17T17:04:02.047Z,21.36
2018-08-17T17:06:30.529Z,19.61
2018-08-17T17:09:03.093Z,19.90
2018-08-17T17:11:31.615Z,20.06
2018-08-17T17:14:00.129Z,20.77
2018-08-17T17:16:50.166Z,22.23
2018-08-17T17:19:21.650Z,23.30
2018-08-17T17:21:51.279Z,23.87
2018-08-17T17:24:20.426Z,23.71
2018-08-17T17:26:48.937Z,24.65
2018-08-17T17:29:18.452Z,24.40
2018-08-17T17:31:50.528Z,23.99
2018-08-17T17:34:19.115Z,24.48
2018-08-17T17:36:47.701Z,24.33
2018-08-17T17:39:16.297Z,24.28
2018-08-17T17:41:44.870Z,23.92
2018-08-17T17:44:13.391Z,23.92
2018-08-17T17:46:42.493Z,24.41
2018-08-17T17:49:11.414Z,24.72
2018-08-17T17:51:39.933Z,24.56
2018-08-17T17:54:08.571Z,25.84
2018-08-17T17:56:37.161Z,26.44
2018-08-17T17:59:11.070Z,27.29
2018-08-17T18:01:39.497Z,27.29
2018-08-17T18:04:08.010Z,27.31
2018-08-17T18:06:36.522Z,28.08
2018-08-17T18:09:06.138Z,30.59
2018-08-17T18:11:34.681Z,31.97
2018-08-17T18:14:03.218Z,33.01
2018-08-17T18:16:31.735Z,31.58
2018-08-17T18:19:00.263Z,33.52
2018-08-17T18:21:31.331Z,34.63
2018-08-17T18:24:05.057Z,34.28
2018-08-17T18:26:33.602Z,35.48
2018-08-17T18:29:02.150Z,35.64
2018-08-17T18:31:30.753Z,36.07
2018-08-17T18:33:59.256Z,35.91
2018-08-17T18:36:27.780Z,35.94
2018-08-17T18:38:56.291Z,35.93
2018-08-17T18:41:24.809Z,37.76
2018-08-17T18:43:53.320Z,36.85
2018-08-17T18:46:21.866Z,37.54
2018-08-17T18:48:50.394Z,37.64
2018-08-17T18:51:18.921Z,38.40
2018-08-17T18:53:47.429Z,39.89
2018-08-17T18:56:15.958Z,41.39
2018-08-17T18:58:44.449Z,42.18
2018-08-17T19:01:13.103Z,42.67
2018-08-17T19:03:41.814Z,43.49
2018-08-17T19:06:10.652Z,43.66
2018-08-17T19:08:39.593Z,44.61
2018-08-17T19:11:08.282Z,45.18
2018-08-17T19:13:36.924Z,45.17
2018-08-17T19:16:05.706Z,45.82
2018-08-17T19:18:34.269Z,45.92
2018-08-17T19:21:05.348Z,46.19
2018-08-17T19:23:33.874Z,46.68
2018-08-17T19:26:02.380Z,47.10
2018-08-17T19:28:31.190Z,47.04
2018-08-17T19:30:59.791Z,47.29
2018-08-17T19:33:28.670Z,47.77
2018-08-17T19:35:57.451Z,48.23
2018-08-17T19:38:26.059Z,49.11
2018-08-17T19:40:55.101Z,49.46
2018-08-17T19:43:23.697Z,49.80
2018-08-17T19:45:52.316Z,49.66
2018-08-17T19:48:21.352Z,49.91
2018-08-17T19:50:49.998Z,50.14
2018-08-17T19:53:19.543Z,49.70
2018-08-17T19:55:48.160Z,49.70
2018-08-17T19:58:17.040Z,49.99
2018-08-17T20:00:45.529Z,50.47
2018-08-17T20:03:14.226Z,50.52
2018-08-17T20:05:42.757Z,50.60
2018-08-17T20:08:11.320Z,50.24
2018-08-17T20:10:40.043Z,49.71
2018-08-17T20:13:08.975Z,49.06
2018-08-17T20:15:37.597Z,49.13
2018-08-17T20:18:06.536Z,48.94
2018-08-17T20:20:35.737Z,49.60
2018-08-17T20:23:04.340Z,50.17
2018-08-17T20:25:32.886Z,49.48
2018-08-17T20:28:01.508Z,48.02
2018-08-17T20:30:30.126Z,48.16
2018-08-17T20:32:58.669Z,48.11
2018-08-17T20:35:27.375Z,48.88
2018-08-17T20:37:55.938Z,48.63
2018-08-17T20:40:24.444Z,49.48
2018-08-17T20:42:54.775Z,50.79
2018-08-17T20:45:26.389Z,50.87
2018-08-17T20:47:55.086Z,50.77
2018-08-17T20:50:23.622Z,50.76
2018-08-17T20:52:57.531Z,50.56
2018-08-17T20:55:26.114Z,50.37
2018-08-17T20:57:55.853Z,50.26
2018-08-17T21:00:26.010Z,50.29
2018-08-17T21:02:55.430Z,50.22
2018-08-17T21:05:24.099Z,49.71
2018-08-17T21:07:52.621Z,50.22
2018-08-17T21:10:21.245Z,49.71
2018-08-17T21:12:50.059Z,49.53
2018-08-17T21:15:19.043Z,48.62
2018-08-17T21:17:48.161Z,48.44
2018-08-17T21:20:16.795Z,48.88
2018-08-17T21:22:45.326Z,51.64
2018-08-17T21:25:13.898Z,55.75
2018-08-17T21:27:42.452Z,57.68
2018-08-17T21:30:11.441Z,57.99
2018-08-17T21:32:39.970Z,58.95
2018-08-17T21:35:08.764Z,58.04
2018-08-17T21:37:37.845Z,58.80
2018-08-17T21:40:16.421Z,58.93
2018-08-17T21:42:44.989Z,58.83
2018-08-17T21:45:13.555Z,58.27
2018-08-17T21:47:42.081Z,58.24
2018-08-17T21:50:13.692Z,58.02
2018-08-17T21:52:42.799Z,57.77
2018-08-17T21:55:11.382Z,57.78
2018-08-17T21:57:39.903Z,57.79
2018-08-17T22:00:20.632Z,57.66
2018-08-17T22:02:49.291Z,57.37
2018-08-17T22:05:31.502Z,57.14
2018-08-17T22:08:00.594Z,57.75
2018-08-17T22:10:29.509Z,57.54
2018-08-17T22:12:58.055Z,57.46
2018-08-17T22:15:28.028Z,57.22
2018-08-17T22:17:56.579Z,57.00
2018-08-17T22:20:25.205Z,59.79
2018-08-17T22:22:53.741Z,59.37
2018-08-17T22:25:22.328Z,59.48
2018-08-17T22:27:50.957Z,59.47
2018-08-17T22:30:21.685Z,59.02
2018-08-17T22:32:50.357Z,59.25
2018-08-17T22:35:19.118Z,58.43
2018-08-17T22:37:47.565Z,58.27
2018-08-17T22:40:16.132Z,61.02
2018-08-17T22:42:47.379Z,61.95
2018-08-17T22:45:15.956Z,61.47
2018-08-17T22:47:44.506Z,61.30
2018-08-17T22:50:13.041Z,61.81
2018-08-17T22:52:41.553Z,61.68
2018-08-17T22:55:10.371Z,61.41
2018-08-17T22:57:38.931Z,60.37
2018-08-17T23:00:19.230Z,61.15
2018-08-17T23:02:51.874Z,61.90
2018-08-17T23:05:23.165Z,61.02
2018-08-17T23:07:51.710Z,60.63
2018-08-17T23:10:21.428Z,60.42
2018-08-17T23:12:51.005Z,60.60
2018-08-17T23:15:19.563Z,60.84
2018-08-17T23:17:54.339Z,60.39
2018-08-17T23:20:28.299Z,60.09
2018-08-17T23:22:59.066Z,59.93
2018-08-17T23:25:27.604Z,59.75
2018-08-17T23:27:56.373Z,59.81
2018-08-17T23:30:24.904Z,59.35
2018-08-17T23:32:53.628Z,59.42
2018-08-17T23:35:22.172Z,59.68
2018-08-17T23:37:50.800Z,59.93
2018-08-17T23:40:19.438Z,60.60
2018-08-17T23:42:49.038Z,60.75
2018-08-17T23:45:18.254Z,60.43
2018-08-17T23:47:47.221Z,60.14
2018-08-17T23:50:16.343Z,59.81
2018-08-17T23:52:45.025Z,60.10
2018-08-17T23:55:15.576Z,60.69
2018-08-17T23:57:44.158Z,61.75
